sensor_id;sensor_type;location;lat;lon;timestamp;P1;durP1;ratioP1;P2;durP2;ratioP2
71773;SDS011;59607;52.130;5.430;2024-01-30T00:00:25;9.20;;;7.47;;
71773;SDS011;59607;52.130;5.430;2024-01-30T00:02:51;11.27;;;7.10;;
71773;SDS011;59607;52.130;5.430;2024-01-30T00:05:18;7.93;;;6.93;;
71773;SDS011;59607;52.130;5.430;2024-01-30T00:07:48;12.30;;;7.13;;
71773;SDS011;59607;52.130;5.430;2024-01-30T00:10:14;11.70;;;7.30;;
71773;SDS011;59607;52.130;5.430;2024-01-30T00:12:47;10.40;;;6.60;;
71773;SDS011;59607;52.130;5.430;2024-01-30T00:15:16;9.05;;;6.93;;
71773;SDS011;59607;52.130;5.430;2024-01-30T00:17:43;9.77;;;7.27;;
71773;SDS011;59607;52.130;5.430;2024-01-30T00:20:26;8.90;;;6.88;;
71773;SDS011;59607;52.130;5.430;2024-01-30T00:23:00;9.68;;;6.57;;
71773;SDS011;59607;52.130;5.430;2024-01-30T00:25:34;7.97;;;6.63;;
71773;SDS011;59607;52.130;5.430;2024-01-30T00:28:04;10.35;;;7.30;;
71773;SDS011;59607;52.130;5.430;2024-01-30T00:30:31;8.63;;;7.30;;
71773;SDS011;59607;52.130;5.430;2024-01-30T00:33:02;10.18;;;7.30;;
71773;SDS011;59607;52.130;5.430;2024-01-30T00:35:29;9.50;;;6.80;;
71773;SDS011;59607;52.130;5.430;2024-01-30T00:37:55;10.25;;;6.55;;
71773;SDS011;59607;52.130;5.430;2024-01-30T00:40:22;9.63;;;7.20;;
71773;SDS011;59607;52.130;5.430;2024-01-30T00:42:48;9.77;;;7.37;;
71773;SDS011;59607;52.130;5.430;2024-01-30T00:45:15;10.32;;;6.97;;
71773;SDS011;59607;52.130;5.430;2024-01-30T00:47:52;9.57;;;7.30;;
71773;SDS011;59607;52.130;5.430;2024-01-30T00:50:19;8.23;;;6.97;;
71773;SDS011;59607;52.130;5.430;2024-01-30T00:52:46;7.78;;;6.65;;
71773;SDS011;59607;52.130;5.430;2024-01-30T00:55:16;9.33;;;6.73;;
71773;SDS011;59607;52.130;5.430;2024-01-30T00:57:42;9.35;;;6.53;;
71773;SDS011;59607;52.130;5.430;2024-01-30T01:00:15;8.65;;;6.53;;
71773;SDS011;59607;52.130;5.430;2024-01-30T01:02:46;12.18;;;6.43;;
71773;SDS011;59607;52.130;5.430;2024-01-30T01:05:24;9.38;;;6.40;;
71773;SDS011;59607;52.130;5.430;2024-01-30T01:07:50;8.23;;;7.00;;
71773;SDS011;59607;52.130;5.430;2024-01-30T01:10:20;9.10;;;6.80;;
71773;SDS011;59607;52.130;5.430;2024-01-30T01:12:49;6.45;;;5.82;;
71773;SDS011;59607;52.130;5.430;2024-01-30T01:15:19;7.05;;;6.35;;
71773;SDS011;59607;52.130;5.430;2024-01-30T01:17:53;7.57;;;6.40;;
71773;SDS011;59607;52.130;5.430;2024-01-30T01:20:20;7.90;;;6.30;;
71773;SDS011;59607;52.130;5.430;2024-01-30T01:22:53;9.38;;;6.45;;
71773;SDS011;59607;52.130;5.430;2024-01-30T01:25:22;7.95;;;7.03;;
71773;SDS011;59607;52.130;5.430;2024-01-30T01:28:02;8.63;;;5.93;;
71773;SDS011;59607;52.130;5.430;2024-01-30T01:30:37;8.18;;;7.38;;
71773;SDS011;59607;52.130;5.430;2024-01-30T01:33:05;7.37;;;6.33;;
71773;SDS011;59607;52.130;5.430;2024-01-30T01:35:49;7.20;;;6.32;;
71773;SDS011;59607;52.130;5.430;2024-01-30T01:38:30;9.82;;;6.15;;
71773;SDS011;59607;52.130;5.430;2024-01-30T01:41:10;8.85;;;6.25;;
71773;SDS011;59607;52.130;5.430;2024-01-30T01:43:40;9.43;;;5.35;;
71773;SDS011;59607;52.130;5.430;2024-01-30T01:46:13;7.33;;;5.50;;
71773;SDS011;59607;52.130;5.430;2024-01-30T01:48:41;6.45;;;5.55;;
71773;SDS011;59607;52.130;5.430;2024-01-30T01:51:16;6.43;;;5.72;;
71773;SDS011;59607;52.130;5.430;2024-01-30T01:53:46;8.07;;;5.80;;
71773;SDS011;59607;52.130;5.430;2024-01-30T01:56:15;6.55;;;5.68;;
71773;SDS011;59607;52.130;5.430;2024-01-30T01:58:43;7.23;;;5.97;;
71773;SDS011;59607;52.130;5.430;2024-01-30T02:01:14;8.07;;;5.57;;
71773;SDS011;59607;52.130;5.430;2024-01-30T02:03:45;9.32;;;5.80;;
71773;SDS011;59607;52.130;5.430;2024-01-30T02:06:18;6.72;;;5.32;;
71773;SDS011;59607;52.130;5.430;2024-01-30T02:08:45;5.97;;;5.25;;
71773;SDS011;59607;52.130;5.430;2024-01-30T02:11:22;8.47;;;5.47;;
71773;SDS011;59607;52.130;5.430;2024-01-30T02:13:49;7.32;;;5.30;;
71773;SDS011;59607;52.130;5.430;2024-01-30T02:16:19;5.85;;;5.32;;
71773;SDS011;59607;52.130;5.430;2024-01-30T02:18:49;6.30;;;5.70;;
71773;SDS011;59607;52.130;5.430;2024-01-30T02:21:16;6.53;;;5.63;;
71773;SDS011;59607;52.130;5.430;2024-01-30T02:23:49;6.53;;;4.80;;
71773;SDS011;59607;52.130;5.430;2024-01-30T02:26:20;6.45;;;5.03;;
71773;SDS011;59607;52.130;5.430;2024-01-30T02:28:52;7.93;;;5.95;;
71773;SDS011;59607;52.130;5.430;2024-01-30T02:31:18;6.82;;;5.40;;
71773;SDS011;59607;52.130;5.430;2024-01-30T02:33:48;7.30;;;5.75;;
71773;SDS011;59607;52.130;5.430;2024-01-30T02:36:15;7.57;;;5.90;;
71773;SDS011;59607;52.130;5.430;2024-01-30T02:38:41;7.25;;;5.90;;
71773;SDS011;59607;52.130;5.430;2024-01-30T02:41:08;7.82;;;5.53;;
71773;SDS011;59607;52.130;5.430;2024-01-30T02:43:43;8.25;;;5.90;;
71773;SDS011;59607;52.130;5.430;2024-01-30T02:46:15;8.95;;;5.38;;
71773;SDS011;59607;52.130;5.430;2024-01-30T02:48:46;8.33;;;5.50;;
71773;SDS011;59607;52.130;5.430;2024-01-30T02:51:12;7.85;;;6.00;;
71773;SDS011;59607;52.130;5.430;2024-01-30T02:53:39;6.90;;;5.28;;
71773;SDS011;59607;52.130;5.430;2024-01-30T02:56:06;6.53;;;5.70;;
71773;SDS011;59607;52.130;5.430;2024-01-30T02:58:36;7.60;;;5.85;;
71773;SDS011;59607;52.130;5.430;2024-01-30T03:01:08;7.90;;;6.00;;
71773;SDS011;59607;52.130;5.430;2024-01-30T03:03:35;6.85;;;6.18;;
71773;SDS011;59607;52.130;5.430;2024-01-30T03:06:02;9.40;;;6.70;;
71773;SDS011;59607;52.130;5.430;2024-01-30T03:08:39;11.27;;;6.78;;
71773;SDS011;59607;52.130;5.430;2024-01-30T03:11:05;8.38;;;6.03;;
71773;SDS011;59607;52.130;5.430;2024-01-30T03:13:38;11.60;;;7.80;;
71773;SDS011;59607;52.130;5.430;2024-01-30T03:16:04;12.07;;;7.50;;
71773;SDS011;59607;52.130;5.430;2024-01-30T03:18:40;9.30;;;7.22;;
71773;SDS011;59607;52.130;5.430;2024-01-30T03:21:07;12.60;;;8.15;;
71773;SDS011;59607;52.130;5.430;2024-01-30T03:23:33;9.05;;;7.78;;
71773;SDS011;59607;52.130;5.430;2024-01-30T03:26:03;11.93;;;7.60;;
71773;SDS011;59607;52.130;5.430;2024-01-30T03:28:34;12.80;;;8.35;;
71773;SDS011;59607;52.130;5.430;2024-01-30T03:31:03;9.20;;;7.82;;
71773;SDS011;59607;52.130;5.430;2024-01-30T03:33:33;11.25;;;8.02;;
71773;SDS011;59607;52.130;5.430;2024-01-30T03:36:04;9.98;;;7.70;;
71773;SDS011;59607;52.130;5.430;2024-01-30T03:38:31;11.20;;;7.40;;
71773;SDS011;59607;52.130;5.430;2024-01-30T03:40:59;10.55;;;7.45;;
71773;SDS011;59607;52.130;5.430;2024-01-30T03:43:30;9.88;;;7.18;;
71773;SDS011;59607;52.130;5.430;2024-01-30T03:46:01;8.70;;;6.97;;
71773;SDS011;59607;52.130;5.430;2024-01-30T03:48:45;8.52;;;6.90;;
71773;SDS011;59607;52.130;5.430;2024-01-30T03:51:18;11.40;;;7.30;;
71773;SDS011;59607;52.130;5.430;2024-01-30T03:53:45;6.88;;;6.18;;
71773;SDS011;59607;52.130;5.430;2024-01-30T03:56:12;11.07;;;6.60;;
71773;SDS011;59607;52.130;5.430;2024-01-30T03:58:43;6.53;;;5.90;;
71773;SDS011;59607;52.130;5.430;2024-01-30T04:01:13;7.93;;;5.57;;
71773;SDS011;59607;52.130;5.430;2024-01-30T04:03:45;9.03;;;5.40;;
71773;SDS011;59607;52.130;5.430;2024-01-30T04:06:11;10.68;;;5.43;;
71773;SDS011;59607;52.130;5.430;2024-01-30T04:08:38;6.47;;;5.63;;
71773;SDS011;59607;52.130;5.430;2024-01-30T04:11:09;6.55;;;4.97;;
71773;SDS011;59607;52.130;5.430;2024-01-30T04:13:35;5.65;;;4.70;;
71773;SDS011;59607;52.130;5.430;2024-01-30T04:16:02;6.27;;;4.83;;
71773;SDS011;59607;52.130;5.430;2024-01-30T04:18:44;7.63;;;4.50;;
71773;SDS011;59607;52.130;5.430;2024-01-30T04:21:15;5.63;;;4.57;;
71773;SDS011;59607;52.130;5.430;2024-01-30T04:23:42;5.70;;;5.05;;
71773;SDS011;59607;52.130;5.430;2024-01-30T04:26:08;5.90;;;4.57;;
71773;SDS011;59607;52.130;5.430;2024-01-30T04:28:44;5.53;;;4.40;;
71773;SDS011;59607;52.130;5.430;2024-01-30T04:31:14;6.65;;;4.30;;
71773;SDS011;59607;52.130;5.430;2024-01-30T04:33:43;5.03;;;4.28;;
71773;SDS011;59607;52.130;5.430;2024-01-30T04:36:09;6.40;;;4.22;;
71773;SDS011;59607;52.130;5.430;2024-01-30T04:38:39;5.68;;;4.35;;
71773;SDS011;59607;52.130;5.430;2024-01-30T04:41:12;4.23;;;3.83;;
71773;SDS011;59607;52.130;5.430;2024-01-30T04:43:39;5.90;;;4.10;;
71773;SDS011;59607;52.130;5.430;2024-01-30T04:46:11;4.22;;;3.83;;
71773;SDS011;59607;52.130;5.430;2024-01-30T04:48:38;4.82;;;4.07;;
71773;SDS011;59607;52.130;5.430;2024-01-30T04:51:20;6.85;;;3.70;;
71773;SDS011;59607;52.130;5.430;2024-01-30T04:53:56;4.73;;;4.27;;
71773;SDS011;59607;52.130;5.430;2024-01-30T04:56:22;5.90;;;4.88;;
71773;SDS011;59607;52.130;5.430;2024-01-30T04:58:49;9.50;;;4.97;;
71773;SDS011;59607;52.130;5.430;2024-01-30T05:01:21;6.13;;;4.93;;
71773;SDS011;59607;52.130;5.430;2024-01-30T05:03:47;6.32;;;4.18;;
71773;SDS011;59607;52.130;5.430;2024-01-30T05:06:28;4.43;;;3.83;;
71773;SDS011;59607;52.130;5.430;2024-01-30T05:08:55;8.00;;;4.68;;
71773;SDS011;59607;52.130;5.430;2024-01-30T05:11:24;7.55;;;4.63;;
71773;SDS011;59607;52.130;5.430;2024-01-30T05:13:50;6.40;;;4.38;;
71773;SDS011;59607;52.130;5.430;2024-01-30T05:16:23;5.25;;;4.28;;
71773;SDS011;59607;52.130;5.430;2024-01-30T05:18:57;4.83;;;4.43;;
71773;SDS011;59607;52.130;5.430;2024-01-30T05:21:38;6.05;;;4.90;;
71773;SDS011;59607;52.130;5.430;2024-01-30T05:24:08;8.30;;;4.53;;
71773;SDS011;59607;52.130;5.430;2024-01-30T05:26:39;7.05;;;4.55;;
71773;SDS011;59607;52.130;5.430;2024-01-30T05:29:16;6.53;;;4.68;;
71773;SDS011;59607;52.130;5.430;2024-01-30T05:31:43;6.30;;;4.27;;
71773;SDS011;59607;52.130;5.430;2024-01-30T05:34:11;5.30;;;4.50;;
71773;SDS011;59607;52.130;5.430;2024-01-30T05:36:39;5.50;;;3.90;;
71773;SDS011;59607;52.130;5.430;2024-01-30T05:39:05;5.05;;;4.47;;
71773;SDS011;59607;52.130;5.430;2024-01-30T05:41:34;5.32;;;4.28;;
71773;SDS011;59607;52.130;5.430;2024-01-30T05:44:04;4.47;;;4.07;;
71773;SDS011;59607;52.130;5.430;2024-01-30T05:46:31;5.65;;;4.40;;
71773;SDS011;59607;52.130;5.430;2024-01-30T05:48:58;6.35;;;4.40;;
71773;SDS011;59607;52.130;5.430;2024-01-30T05:51:30;6.15;;;4.32;;
71773;SDS011;59607;52.130;5.430;2024-01-30T05:53:57;5.80;;;4.07;;
71773;SDS011;59607;52.130;5.430;2024-01-30T05:56:31;4.20;;;3.70;;
71773;SDS011;59607;52.130;5.430;2024-01-30T05:58:57;6.70;;;4.90;;
71773;SDS011;59607;52.130;5.430;2024-01-30T06:01:27;7.65;;;4.28;;
71773;SDS011;59607;52.130;5.430;2024-01-30T06:03:55;8.30;;;4.45;;
71773;SDS011;59607;52.130;5.430;2024-01-30T06:06:21;6.70;;;4.45;;
71773;SDS011;59607;52.130;5.430;2024-01-30T06:08:48;7.03;;;4.47;;
71773;SDS011;59607;52.130;5.430;2024-01-30T06:11:15;5.18;;;3.80;;
71773;SDS011;59607;52.130;5.430;2024-01-30T06:13:44;5.13;;;4.63;;
71773;SDS011;59607;52.130;5.430;2024-01-30T06:16:11;5.38;;;4.40;;
71773;SDS011;59607;52.130;5.430;2024-01-30T06:18:55;8.00;;;4.25;;
71773;SDS011;59607;52.130;5.430;2024-01-30T06:21:26;6.10;;;4.10;;
71773;SDS011;59607;52.130;5.430;2024-01-30T06:23:52;4.47;;;4.07;;
71773;SDS011;59607;52.130;5.430;2024-01-30T06:26:18;6.40;;;4.55;;
71773;SDS011;59607;52.130;5.430;2024-01-30T06:28:45;6.00;;;4.10;;
71773;SDS011;59607;52.130;5.430;2024-01-30T06:31:15;4.97;;;3.80;;
71773;SDS011;59607;52.130;5.430;2024-01-30T06:33:42;4.33;;;3.93;;
71773;SDS011;59607;52.130;5.430;2024-01-30T06:36:14;6.32;;;4.30;;
71773;SDS011;59607;52.130;5.430;2024-01-30T06:38:41;10.52;;;4.35;;
71773;SDS011;59607;52.130;5.430;2024-01-30T06:41:10;4.70;;;4.10;;
71773;SDS011;59607;52.130;5.430;2024-01-30T06:43:40;4.00;;;3.60;;
71773;SDS011;59607;52.130;5.430;2024-01-30T06:46:06;4.10;;;3.67;;
71773;SDS011;59607;52.130;5.430;2024-01-30T06:48:38;7.93;;;4.40;;
71773;SDS011;59607;52.130;5.430;2024-01-30T06:51:07;7.53;;;4.10;;
71773;SDS011;59607;52.130;5.430;2024-01-30T06:53:33;4.65;;;3.85;;
71773;SDS011;59607;52.130;5.430;2024-01-30T06:56:05;6.32;;;4.25;;
71773;SDS011;59607;52.130;5.430;2024-01-30T06:58:32;4.63;;;4.10;;
71773;SDS011;59607;52.130;5.430;2024-01-30T07:00:59;4.70;;;4.07;;
71773;SDS011;59607;52.130;5.430;2024-01-30T07:03:31;5.20;;;4.13;;
71773;SDS011;59607;52.130;5.430;2024-01-30T07:05:58;4.30;;;3.90;;
71773;SDS011;59607;52.130;5.430;2024-01-30T07:08:29;5.03;;;4.05;;
71773;SDS011;59607;52.130;5.430;2024-01-30T07:10:59;5.10;;;4.47;;
71773;SDS011;59607;52.130;5.430;2024-01-30T07:13:27;6.47;;;4.78;;
71773;SDS011;59607;52.130;5.430;2024-01-30T07:15:57;4.40;;;4.00;;
71773;SDS011;59607;52.130;5.430;2024-01-30T07:18:24;7.45;;;3.80;;
71773;SDS011;59607;52.130;5.430;2024-01-30T07:20:50;7.72;;;4.28;;
71773;SDS011;59607;52.130;5.430;2024-01-30T07:23:23;6.80;;;4.20;;
71773;SDS011;59607;52.130;5.430;2024-01-30T07:25:49;5.53;;;4.07;;
71773;SDS011;59607;52.130;5.430;2024-01-30T07:28:19;4.55;;;4.00;;
71773;SDS011;59607;52.130;5.430;2024-01-30T07:30:46;5.03;;;3.80;;
71773;SDS011;59607;52.130;5.430;2024-01-30T07:33:13;4.78;;;3.60;;
71773;SDS011;59607;52.130;5.430;2024-01-30T07:35:52;7.27;;;4.07;;
71773;SDS011;59607;52.130;5.430;2024-01-30T07:38:19;5.53;;;4.15;;
71773;SDS011;59607;52.130;5.430;2024-01-30T07:40:51;5.70;;;3.63;;
71773;SDS011;59607;52.130;5.430;2024-01-30T07:43:18;7.60;;;4.45;;
71773;SDS011;59607;52.130;5.430;2024-01-30T07:45:47;5.55;;;4.18;;
71773;SDS011;59607;52.130;5.430;2024-01-30T07:48:17;4.37;;;3.97;;
71773;SDS011;59607;52.130;5.430;2024-01-30T07:50:43;4.90;;;3.78;;
71773;SDS011;59607;52.130;5.430;2024-01-30T07:53:10;6.82;;;4.18;;
71773;SDS011;59607;52.130;5.430;2024-01-30T07:55:40;5.15;;;4.05;;
71773;SDS011;59607;52.130;5.430;2024-01-30T07:58:07;5.05;;;4.10;;
71773;SDS011;59607;52.130;5.430;2024-01-30T08:00:34;8.47;;;4.03;;
71773;SDS011;59607;52.130;5.430;2024-01-30T08:03:08;4.88;;;4.28;;
71773;SDS011;59607;52.130;5.430;2024-01-30T08:05:41;7.35;;;3.83;;
71773;SDS011;59607;52.130;5.430;2024-01-30T08:08:12;5.05;;;4.43;;
71773;SDS011;59607;52.130;5.430;2024-01-30T08:10:38;5.65;;;4.28;;
71773;SDS011;59607;52.130;5.430;2024-01-30T08:13:22;4.67;;;4.23;;
71773;SDS011;59607;52.130;5.430;2024-01-30T08:15:52;8.75;;;4.50;;
71773;SDS011;59607;52.130;5.430;2024-01-30T08:18:18;8.48;;;4.35;;
71773;SDS011;59607;52.130;5.430;2024-01-30T08:20:45;5.18;;;4.18;;
71773;SDS011;59607;52.130;5.430;2024-01-30T08:23:17;7.13;;;3.90;;
71773;SDS011;59607;52.130;5.430;2024-01-30T08:25:43;6.30;;;4.10;;
71773;SDS011;59607;52.130;5.430;2024-01-30T08:28:10;7.88;;;4.15;;
71773;SDS011;59607;52.130;5.430;2024-01-30T08:30:46;6.95;;;4.50;;
71773;SDS011;59607;52.130;5.430;2024-01-30T08:33:17;6.45;;;4.28;;
71773;SDS011;59607;52.130;5.430;2024-01-30T08:35:48;7.53;;;4.68;;
71773;SDS011;59607;52.130;5.430;2024-01-30T08:38:15;6.53;;;4.03;;
71773;SDS011;59607;52.130;5.430;2024-01-30T08:40:41;7.03;;;3.63;;
71773;SDS011;59607;52.130;5.430;2024-01-30T08:43:11;7.68;;;4.18;;
71773;SDS011;59607;52.130;5.430;2024-01-30T08:45:38;7.30;;;4.43;;
71773;SDS011;59607;52.130;5.430;2024-01-30T08:48:13;5.75;;;4.53;;
71773;SDS011;59607;52.130;5.430;2024-01-30T08:50:39;5.37;;;3.87;;
71773;SDS011;59607;52.130;5.430;2024-01-30T08:53:08;6.35;;;4.20;;
71773;SDS011;59607;52.130;5.430;2024-01-30T08:55:35;8.00;;;4.50;;
71773;SDS011;59607;52.130;5.430;2024-01-30T08:58:01;7.97;;;4.25;;
71773;SDS011;59607;52.130;5.430;2024-01-30T09:00:34;11.60;;;4.32;;
71773;SDS011;59607;52.130;5.430;2024-01-30T09:03:03;11.80;;;4.30;;
71773;SDS011;59607;52.130;5.430;2024-01-30T09:05:30;12.27;;;4.40;;
71773;SDS011;59607;52.130;5.430;2024-01-30T09:07:56;9.35;;;4.43;;
71773;SDS011;59607;52.130;5.430;2024-01-30T09:10:29;6.40;;;4.00;;
71773;SDS011;59607;52.130;5.430;2024-01-30T09:12:58;15.68;;;5.07;;
71773;SDS011;59607;52.130;5.430;2024-01-30T09:15:30;8.20;;;4.07;;
71773;SDS011;59607;52.130;5.430;2024-01-30T09:17:56;10.70;;;4.07;;
71773;SDS011;59607;52.130;5.430;2024-01-30T09:20:23;8.35;;;4.20;;
71773;SDS011;59607;52.130;5.430;2024-01-30T09:22:53;13.82;;;3.88;;
71773;SDS011;59607;52.130;5.430;2024-01-30T09:25:19;6.13;;;4.18;;
71773;SDS011;59607;52.130;5.430;2024-01-30T09:27:53;8.67;;;4.10;;
71773;SDS011;59607;52.130;5.430;2024-01-30T09:30:20;6.85;;;4.63;;
71773;SDS011;59607;52.130;5.430;2024-01-30T09:32:52;6.60;;;3.90;;
71773;SDS011;59607;52.130;5.430;2024-01-30T09:35:28;7.07;;;3.97;;
71773;SDS011;59607;52.130;5.430;2024-01-30T09:37:59;5.97;;;4.15;;
71773;SDS011;59607;52.130;5.430;2024-01-30T09:40:26;7.00;;;3.83;;
71773;SDS011;59607;52.130;5.430;2024-01-30T09:42:59;6.68;;;3.67;;
71773;SDS011;59607;52.130;5.430;2024-01-30T09:45:34;6.50;;;4.22;;
71773;SDS011;59607;52.130;5.430;2024-01-30T09:48:07;7.55;;;4.20;;
71773;SDS011;59607;52.130;5.430;2024-01-30T09:50:33;9.02;;;3.90;;
71773;SDS011;59607;52.130;5.430;2024-01-30T09:53:08;8.77;;;4.53;;
71773;SDS011;59607;52.130;5.430;2024-01-30T09:55:35;8.48;;;4.13;;
71773;SDS011;59607;52.130;5.430;2024-01-30T09:58:06;9.77;;;4.78;;
71773;SDS011;59607;52.130;5.430;2024-01-30T10:00:33;6.82;;;4.65;;
71773;SDS011;59607;52.130;5.430;2024-01-30T10:02:59;7.82;;;4.53;;
71773;SDS011;59607;52.130;5.430;2024-01-30T10:05:32;9.97;;;4.00;;
71773;SDS011;59607;52.130;5.430;2024-01-30T10:08:06;6.35;;;4.40;;
71773;SDS011;59607;52.130;5.430;2024-01-30T10:10:38;4.68;;;4.05;;
71773;SDS011;59607;52.130;5.430;2024-01-30T10:13:05;7.75;;;3.88;;
71773;SDS011;59607;52.130;5.430;2024-01-30T10:15:32;7.90;;;4.50;;
71773;SDS011;59607;52.130;5.430;2024-01-30T10:17:58;5.97;;;4.50;;
71773;SDS011;59607;52.130;5.430;2024-01-30T10:20:28;5.95;;;4.00;;
71773;SDS011;59607;52.130;5.430;2024-01-30T10:22:55;7.57;;;3.83;;
71773;SDS011;59607;52.130;5.430;2024-01-30T10:25:27;6.32;;;3.50;;
71773;SDS011;59607;52.130;5.430;2024-01-30T10:27:54;8.70;;;4.07;;
71773;SDS011;59607;52.130;5.430;2024-01-30T10:30:24;6.03;;;4.17;;
71773;SDS011;59607;52.130;5.430;2024-01-30T10:32:51;6.35;;;4.38;;
71773;SDS011;59607;52.130;5.430;2024-01-30T10:35:18;9.43;;;4.13;;
71773;SDS011;59607;52.130;5.430;2024-01-30T10:37:54;5.18;;;3.90;;
71773;SDS011;59607;52.130;5.430;2024-01-30T10:40:23;6.97;;;4.30;;
71773;SDS011;59607;52.130;5.430;2024-01-30T10:42:57;10.20;;;3.80;;
71773;SDS011;59607;52.130;5.430;2024-01-30T10:45:30;6.25;;;3.65;;
71773;SDS011;59607;52.130;5.430;2024-01-30T10:48:03;8.48;;;3.75;;
71773;SDS011;59607;52.130;5.430;2024-01-30T10:50:33;6.75;;;4.13;;
71773;SDS011;59607;52.130;5.430;2024-01-30T10:53:09;5.68;;;3.75;;
71773;SDS011;59607;52.130;5.430;2024-01-30T10:55:46;6.13;;;3.40;;
71773;SDS011;59607;52.130;5.430;2024-01-30T10:58:14;5.68;;;3.83;;
71773;SDS011;59607;52.130;5.430;2024-01-30T11:00:44;6.10;;;3.80;;
71773;SDS011;59607;52.130;5.430;2024-01-30T11:03:16;4.60;;;3.50;;
71773;SDS011;59607;52.130;5.430;2024-01-30T11:05:52;4.50;;;2.80;;
71773;SDS011;59607;52.130;5.430;2024-01-30T11:08:25;6.00;;;2.83;;
71773;SDS011;59607;52.130;5.430;2024-01-30T11:10:57;5.10;;;3.13;;
71773;SDS011;59607;52.130;5.430;2024-01-30T11:13:29;4.30;;;2.63;;
71773;SDS011;59607;52.130;5.430;2024-01-30T11:16:04;5.35;;;2.95;;
71773;SDS011;59607;52.130;5.430;2024-01-30T11:18:40;5.07;;;3.50;;
71773;SDS011;59607;52.130;5.430;2024-01-30T11:21:13;4.83;;;2.83;;
71773;SDS011;59607;52.130;5.430;2024-01-30T11:23:41;5.00;;;2.97;;
71773;SDS011;59607;52.130;5.430;2024-01-30T11:26:14;7.55;;;3.60;;
71773;SDS011;59607;52.130;5.430;2024-01-30T11:28:43;5.88;;;3.38;;
71773;SDS011;59607;52.130;5.430;2024-01-30T11:31:25;5.65;;;2.50;;
71773;SDS011;59607;52.130;5.430;2024-01-30T11:33:52;4.10;;;2.67;;
71773;SDS011;59607;52.130;5.430;2024-01-30T11:36:23;4.85;;;2.28;;
71773;SDS011;59607;52.130;5.430;2024-01-30T11:38:55;3.00;;;2.40;;
71773;SDS011;59607;52.130;5.430;2024-01-30T11:41:22;4.15;;;1.95;;
71773;SDS011;59607;52.130;5.430;2024-01-30T11:43:52;2.13;;;1.15;;
71773;SDS011;59607;52.130;5.430;2024-01-30T11:46:19;4.20;;;1.20;;
71773;SDS011;59607;52.130;5.430;2024-01-30T11:48:46;2.00;;;0.93;;
71773;SDS011;59607;52.130;5.430;2024-01-30T11:51:27;2.90;;;0.80;;
71773;SDS011;59607;52.130;5.430;2024-01-30T11:54:07;7.82;;;0.80;;
71773;SDS011;59607;52.130;5.430;2024-01-30T11:56:42;3.65;;;0.93;;
71773;SDS011;59607;52.130;5.430;2024-01-30T11:59:09;4.27;;;0.70;;
71773;SDS011;59607;52.130;5.430;2024-01-30T12:01:39;3.90;;;0.70;;
71773;SDS011;59607;52.130;5.430;2024-01-30T12:04:08;3.00;;;0.52;;
71773;SDS011;59607;52.130;5.430;2024-01-30T12:06:36;3.50;;;0.45;;
71773;SDS011;59607;52.130;5.430;2024-01-30T12:09:08;2.75;;;0.55;;
71773;SDS011;59607;52.130;5.430;2024-01-30T12:11:51;3.83;;;0.77;;
71773;SDS011;59607;52.130;5.430;2024-01-30T12:14:18;6.05;;;0.40;;
71773;SDS011;59607;52.130;5.430;2024-01-30T12:17:01;1.85;;;0.40;;
71773;SDS011;59607;52.130;5.430;2024-01-30T12:19:45;3.17;;;0.40;;
71773;SDS011;59607;52.130;5.430;2024-01-30T12:22:16;2.70;;;0.40;;
71773;SDS011;59607;52.130;5.430;2024-01-30T12:24:42;1.03;;;0.30;;
71773;SDS011;59607;52.130;5.430;2024-01-30T12:27:14;3.95;;;0.45;;
71773;SDS011;59607;52.130;5.430;2024-01-30T12:29:44;2.53;;;0.60;;
71773;SDS011;59607;52.130;5.430;2024-01-30T12:32:17;4.45;;;0.70;;
71773;SDS011;59607;52.130;5.430;2024-01-30T12:34:46;2.10;;;0.88;;
71773;SDS011;59607;52.130;5.430;2024-01-30T12:37:27;4.37;;;1.10;;
71773;SDS011;59607;52.130;5.430;2024-01-30T12:39:55;3.08;;;0.70;;
71773;SDS011;59607;52.130;5.430;2024-01-30T12:42:28;5.78;;;0.85;;
71773;SDS011;59607;52.130;5.430;2024-01-30T12:44:57;2.08;;;0.70;;
71773;SDS011;59607;52.130;5.430;2024-01-30T12:47:31;3.92;;;1.00;;
71773;SDS011;59607;52.130;5.430;2024-01-30T12:49:58;1.10;;;0.50;;
71773;SDS011;59607;52.130;5.430;2024-01-30T12:52:29;3.53;;;0.70;;
71773;SDS011;59607;52.130;5.430;2024-01-30T12:54:59;2.47;;;0.50;;
71773;SDS011;59607;52.130;5.430;2024-01-30T12:57:32;4.45;;;0.52;;
71773;SDS011;59607;52.130;5.430;2024-01-30T13:00:01;2.75;;;0.73;;
71773;SDS011;59607;52.130;5.430;2024-01-30T13:02:31;3.27;;;0.77;;
71773;SDS011;59607;52.130;5.430;2024-01-30T13:05:06;2.45;;;0.60;;
71773;SDS011;59607;52.130;5.430;2024-01-30T13:07:36;4.45;;;0.75;;
71773;SDS011;59607;52.130;5.430;2024-01-30T13:10:03;2.33;;;0.40;;
71773;SDS011;59607;52.130;5.430;2024-01-30T13:12:30;2.38;;;0.80;;
71773;SDS011;59607;52.130;5.430;2024-01-30T13:15:02;2.67;;;0.43;;
71773;SDS011;59607;52.130;5.430;2024-01-30T13:17:32;2.38;;;0.50;;
71773;SDS011;59607;52.130;5.430;2024-01-30T13:19:59;0.98;;;0.28;;
71773;SDS011;59607;52.130;5.430;2024-01-30T13:22:37;2.08;;;0.20;;
71773;SDS011;59607;52.130;5.430;2024-01-30T13:25:07;1.65;;;0.50;;
71773;SDS011;59607;52.130;5.430;2024-01-30T13:27:36;1.77;;;0.57;;
71773;SDS011;59607;52.130;5.430;2024-01-30T13:30:04;1.75;;;0.40;;
71773;SDS011;59607;52.130;5.430;2024-01-30T13:32:44;0.88;;;0.30;;
71773;SDS011;59607;52.130;5.430;2024-01-30T13:35:12;2.15;;;0.38;;
71773;SDS011;59607;52.130;5.430;2024-01-30T13:37:39;2.15;;;0.40;;
71773;SDS011;59607;52.130;5.430;2024-01-30T13:40:08;1.27;;;0.20;;
71773;SDS011;59607;52.130;5.430;2024-01-30T13:42:42;2.28;;;0.40;;
71773;SDS011;59607;52.130;5.430;2024-01-30T13:45:09;3.17;;;0.50;;
71773;SDS011;59607;52.130;5.430;2024-01-30T13:47:49;1.27;;;0.35;;
71773;SDS011;59607;52.130;5.430;2024-01-30T13:50:22;2.65;;;0.35;;
71773;SDS011;59607;52.130;5.430;2024-01-30T13:52:57;0.90;;;0.20;;
71773;SDS011;59607;52.130;5.430;2024-01-30T13:55:30;0.95;;;0.20;;
71773;SDS011;59607;52.130;5.430;2024-01-30T13:57:57;1.65;;;0.30;;
71773;SDS011;59607;52.130;5.430;2024-01-30T14:00:34;1.02;;;0.20;;
71773;SDS011;59607;52.130;5.430;2024-01-30T14:03:00;2.20;;;0.20;;
71773;SDS011;59607;52.130;5.430;2024-01-30T14:05:30;2.33;;;0.30;;
71773;SDS011;59607;52.130;5.430;2024-01-30T14:07:57;1.75;;;0.30;;
71773;SDS011;59607;52.130;5.430;2024-01-30T14:10:26;2.95;;;0.95;;
71773;SDS011;59607;52.130;5.430;2024-01-30T14:12:55;1.98;;;0.30;;
71773;SDS011;59607;52.130;5.430;2024-01-30T14:15:24;0.98;;;0.28;;
71773;SDS011;59607;52.130;5.430;2024-01-30T14:17:55;3.70;;;0.30;;
71773;SDS011;59607;52.130;5.430;2024-01-30T14:20:29;1.90;;;0.30;;
71773;SDS011;59607;52.130;5.430;2024-01-30T14:23:01;0.65;;;0.17;;
71773;SDS011;59607;52.130;5.430;2024-01-30T14:25:35;2.78;;;0.22;;
71773;SDS011;59607;52.130;5.430;2024-01-30T14:28:17;2.08;;;0.32;;
71773;SDS011;59607;52.130;5.430;2024-01-30T14:30:54;1.00;;;0.20;;
71773;SDS011;59607;52.130;5.430;2024-01-30T14:33:20;0.85;;;0.40;;
71773;SDS011;59607;52.130;5.430;2024-01-30T14:36:01;2.25;;;0.30;;
71773;SDS011;59607;52.130;5.430;2024-01-30T14:38:37;5.35;;;0.55;;
71773;SDS011;59607;52.130;5.430;2024-01-30T14:41:03;0.90;;;0.20;;
71773;SDS011;59607;52.130;5.430;2024-01-30T14:43:47;3.27;;;0.30;;
71773;SDS011;59607;52.130;5.430;2024-01-30T14:46:29;2.58;;;0.30;;
71773;SDS011;59607;52.130;5.430;2024-01-30T14:49:02;3.60;;;0.30;;
71773;SDS011;59607;52.130;5.430;2024-01-30T14:51:34;1.98;;;0.30;;
71773;SDS011;59607;52.130;5.430;2024-01-30T14:54:04;1.65;;;0.43;;
71773;SDS011;59607;52.130;5.430;2024-01-30T14:56:30;2.03;;;0.30;;
71773;SDS011;59607;52.130;5.430;2024-01-30T14:58:57;2.80;;;0.35;;
71773;SDS011;59607;52.130;5.430;2024-01-30T15:01:31;2.50;;;0.57;;
71773;SDS011;59607;52.130;5.430;2024-01-30T15:03:58;3.50;;;0.43;;